Time;durP1;ratioP1;P1;durP2;ratioP2;P2;SDS_P1;SDS_P2;PMS_P1;PMS_P2;Temp;Humidity;BMP_temperature;BMP_pressure;BME280_temperature;BME280_humidity;BME280_pressure;Samples;Min_cycle;Max_cycle;Signal;HPM_P1;HPM_P2
2022/12/22 03:27:08;;;;;;;44.95;22.38;;;;;;;-0.09;54.59;95101.47;5093007;28;20078;-77
2022/12/22 03:29:33;;;;;;;40.35;22.65;;;;;;;-0.10;54.86;95097.97;5074059;28;20437;-76
2022/12/22 03:31:58;;;;;;;40.55;22.20;;;;;;;-0.09;54.23;95101.47;5075455;28;20493;-76
2022/12/22 03:34:24;;;;;;;40.33;21.92;;;;;;;-0.07;54.68;95097.25;5074417;28;20020;-78
2022/12/22 03:36:49;;;;;;;47.05;24.40;;;;;;;-0.10;54.38;95094.50;5093320;28;20108;-77
2022/12/22 03:39:15;;;;;;;44.35;22.55;;;;;;;-0.07;54.16;95108.06;5108577;28;20035;-76
2022/12/22 03:47:08;;;;;;;;;;;;;;;-0.09;54.48;95102.25;5094913;28;20054;-77
2022/12/22 03:49:34;;;;;;;41.40;19.90;;;;;;;-0.15;54.31;95092.13;5092331;28;20386;-77
2022/12/22 03:51:59;;;;;;;35.55;19.58;;;;;;;-0.17;54.33;95102.50;5091033;28;20089;-76
2022/12/22 03:54:25;;;;;;;31.38;17.40;;;;;;;-0.16;54.20;95099.44;5091804;28;20027;-76
2022/12/22 03:56:51;;;;;;;38.53;18.33;;;;;;;-0.15;54.33;95097.50;5107857;28;20031;-78
2022/12/22 03:59:17;;;;;;;35.83;18.35;;;;;;;-0.22;54.50;95098.19;5091662;28;20046;-77
2022/12/22 04:01:52;;;;;;;30.58;17.60;;;;;;;-0.21;54.17;95093.56;5074059;28;20484;-77
2022/12/22 04:04:19;;;;;;;35.75;17.63;;;;;;;-0.27;54.46;95085.78;5107827;28;20500;-75
2022/12/22 04:06:44;;;;;;;32.28;17.30;;;;;;;-0.28;54.52;95084.22;5091484;28;20044;-77
2022/12/22 04:09:10;;;;;;;29.10;16.67;;;;;;;-0.22;53.94;95089.31;5107108;28;20110;-75
2022/12/22 04:14:20;;;;;;;30.63;15.95;;;;;;;-0.22;55.75;95087.38;5108648;28;20030;-77
2022/12/22 04:16:45;;;;;;;33.53;16.65;;;;;;;-0.20;55.15;95092.41;5090541;28;20061;-76
2022/12/22 04:19:10;;;;;;;28.85;16.92;;;;;;;-0.23;54.72;95085.84;5074737;28;20031;-77
2022/12/22 04:21:36;;;;;;;26.13;15.73;;;;;;;-0.22;54.46;95089.31;5107417;28;20073;-75
2022/12/22 04:24:02;;;;;;;27.10;15.80;;;;;;;-0.20;54.62;95097.81;5091156;28;20422;-76
2022/12/22 04:26:27;;;;;;;27.08;16.20;;;;;;;-0.23;54.45;95093.13;5090281;28;20024;-76
2022/12/22 04:28:53;;;;;;;24.70;14.82;;;;;;;-0.23;54.74;95099.34;5074091;28;20020;-77
2022/12/22 04:31:18;;;;;;;27.05;16.02;;;;;;;-0.23;54.62;95099.34;5107540;28;20019;-76
2022/12/22 04:33:44;;;;;;;28.65;16.60;;;;;;;-0.23;54.62;95091.25;5090778;28;20049;-75
2022/12/22 04:36:10;;;;;;;27.63;15.45;;;;;;;-0.16;54.67;95091.34;5090794;28;20398;-77
2022/12/22 04:38:35;;;;;;;31.55;16.33;;;;;;;-0.19;54.41;95091.28;5107395;28;20032;-77
2022/12/22 04:41:01;;;;;;;32.00;17.25;;;;;;;-0.22;54.47;95087.38;5090524;28;20023;-76
2022/12/22 04:43:27;;;;;;;27.83;16.92;;;;;;;-0.21;54.68;95091.66;5107066;28;20028;-76
2022/12/22 04:45:53;;;;;;;30.73;16.63;;;;;;;-0.22;54.49;95092.78;5107735;28;20481;-76
2022/12/22 04:48:19;;;;;;;29.45;16.98;;;;;;;-0.20;54.62;95087.00;5107038;28;20031;-78
2022/12/22 04:50:45;;;;;;;32.33;18.13;;;;;;;-0.18;54.45;95085.50;5090128;28;20502;-77
2022/12/22 04:53:10;;;;;;;30.20;17.08;;;;;;;-0.15;54.37;95089.41;5073301;28;20380;-76
2022/12/22 04:55:36;;;;;;;29.45;17.63;;;;;;;-0.12;54.25;95088.66;5073108;28;20020;-78
2022/12/22 04:58:03;;;;;;;26.77;17.85;;;;;;;-0.21;54.23;95080.06;5090149;28;20031;-76
2022/12/22 05:00:28;;;;;;;29.40;18.13;;;;;;;-0.15;54.58;95086.72;5073171;28;20027;-76
2022/12/22 05:02:54;;;;;;;33.90;17.85;;;;;;;-0.17;54.24;95086.28;5073263;28;20020;-77
2022/12/22 05:05:20;;;;;;;33.50;17.88;;;;;;;-0.18;54.33;95087.41;5088665;28;20093;-76
2022/12/22 05:07:46;;;;;;;38.30;18.52;;;;;;;-0.19;54.26;95085.88;5090350;28;20024;-77
2022/12/22 05:10:11;;;;;;;34.53;17.70;;;;;;;-0.18;54.36;95088.19;5081816;28;20100;-76
2022/12/22 05:12:55;;;;;;;40.85;19.95;;;;;;;-0.18;54.42;95092.81;5111685;28;20142;-77
2022/12/22 05:15:24;;;;;;;36.67;21.75;;;;;;;-0.18;54.51;95092.81;5093558;28;20097;-77
2022/12/22 05:17:50;;;;;;;43.05;21.58;;;;;;;-0.21;54.55;95090.88;5072718;28;20448;-76
2022/12/22 05:20:15;;;;;;;41.25;21.77;;;;;;;-0.19;54.62;95097.47;5090649;28;20020;-77
2022/12/22 05:22:41;;;;;;;41.90;21.48;;;;;;;-0.19;54.48;95096.69;5072169;28;20467;-77
2022/12/22 05:25:07;;;;;;;38.80;21.17;;;;;;;-0.20;54.80;95101.31;5090099;28;20026;-77
2022/12/22 05:27:32;;;;;;;30.92;18.92;;;;;;;-0.22;55.05;95100.13;5106583;28;20019;-75
2022/12/22 05:29:58;;;;;;;32.55;19.17;;;;;;;-0.20;55.24;95101.31;5090548;28;20554;-77
2022/12/22 05:32:23;;;;;;;39.47;20.42;;;;;;;-0.22;55.34;95098.19;5090108;28;20405;-77
2022/12/22 05:34:49;;;;;;;37.03;19.52;;;;;;;-0.21;55.11;95096.28;5106101;28;20031;-78
2022/12/22 05:37:14;;;;;;;51.20;22.23;;;;;;;-0.20;54.98;95106.72;5090072;28;20038;-78
2022/12/22 05:39:39;;;;;;;40.50;20.92;;;;;;;-0.16;54.89;95109.47;5089046;28;20027;-75
2022/12/22 05:42:05;;;;;;;39.05;21.30;;;;;;;-0.18;55.10;95114.44;5089785;28;20036;-77
2022/12/22 05:44:30;;;;;;;34.85;21.08;;;;;;;-0.22;54.92;95100.91;5088886;28;20058;-76
2022/12/22 05:46:57;;;;;;;48.13;23.48;;;;;;;-0.19;54.48;95093.97;5089275;28;20101;-76
2022/12/22 05:49:22;;;;;;;34.80;21.75;;;;;;;-0.17;55.04;95097.09;5072586;28;20035;-77
2022/12/22 05:51:48;;;;;;;44.92;23.08;;;;;;;-0.15;54.91;95097.50;5104960;28;20058;-77
2022/12/22 05:54:14;;;;;;;40.40;21.60;;;;;;;-0.12;54.91;95107.59;5106115;28;20027;-76
2022/12/22 05:56:39;;;;;;;39.25;24.13;;;;;;;-0.12;54.85;95105.66;5105856;28;20490;-75
2022/12/22 05:59:05;;;;;;;43.83;24.30;;;;;;;-0.14;54.90;95094.44;5106653;28;20136;-80
2022/12/22 06:01:30;;;;;;;44.45;25.65;;;;;;;-0.11;54.62;95104.53;5071168;28;20031;-76
2022/12/22 06:03:56;;;;;;;46.13;23.50;;;;;;;-0.09;54.71;95110.34;5089108;28;20054;-76
2022/12/22 06:06:21;;;;;;;42.58;24.17;;;;;;;-0.05;54.72;95108.47;5105499;28;20097;-79
2022/12/22 06:08:46;;;;;;;40.65;25.08;;;;;;;-0.01;54.96;95101.19;5105602;28;20498;-77
2022/12/22 06:11:16;;;;;;;50.67;26.63;;;;;;;-0.02;55.01;95102.34;5106129;28;20039;-77
2022/12/22 06:13:42;;;;;;;46.58;25.73;;;;;;;-0.02;55.33;95107.75;5106991;28;20032;-77
2022/12/22 06:16:08;;;;;;;51.45;26.48;;;;;;;-0.05;55.36;95097.69;5106168;28;20023;-77
2022/12/22 06:18:33;;;;;;;47.55;26.27;;;;;;;0.00;55.14;95107.41;5106459;28;20027;-77
2022/12/22 06:20:59;;;;;;;49.80;27.15;;;;;;;0.03;55.33;95106.66;5107203;28;20015;-76
2022/12/22 06:23:24;;;;;;;50.95;28.02;;;;;;;0.05;55.34;95112.47;5105396;28;20027;-77
2022/12/22 06:25:54;;;;;;;48.35;27.73;;;;;;;0.06;55.03;95107.84;5088079;28;20031;-76
2022/12/22 06:28:20;;;;;;;57.58;31.08;;;;;;;0.12;55.08;95115.28;5106181;28;20019;-77
2022/12/22 06:30:46;;;;;;;50.13;29.40;;;;;;;0.14;55.40;95107.59;5088166;28;20030;-76
2022/12/22 06:33:12;;;;;;;49.92;31.40;;;;;;;0.19;55.34;95120.00;5105766;28;20273;-76
2022/12/22 06:35:37;;;;;;;60.63;31.23;;;;;;;0.21;55.42;95115.78;5087923;28;20085;-77
2022/12/22 06:38:03;;;;;;;56.05;31.35;;;;;;;0.26;54.94;95115.47;5088805;28;20038;-76
2022/12/22 06:40:28;;;;;;;59.90;32.63;;;;;;;0.28;54.73;95109.69;5088080;28;20026;-76
2022/12/22 06:43:09;;;;;;;60.47;32.05;;;;;;;0.36;55.15;95127.59;5105369;28;20398;-77
2022/12/22 06:45:41;;;;;;;61.88;33.25;;;;;;;0.40;54.77;95123.00;5091202;28;20024;-78
2022/12/22 06:48:07;;;;;;;70.38;34.17;;;;;;;0.45;55.21;95121.88;5105542;28;20024;-75
2022/12/22 06:50:33;;;;;;;62.65;33.95;;;;;;;0.46;54.94;95126.94;5107665;28;20027;-77
2022/12/22 06:52:58;;;;;;;65.13;36.47;;;;;;;0.50;54.91;95126.97;5104734;28;20034;-76
2022/12/22 06:55:24;;;;;;;64.55;34.90;;;;;;;0.57;55.36;95131.69;5089164;28;20108;-77
2022/12/22 06:57:49;;;;;;;61.95;35.80;;;;;;;0.60;55.36;95134.44;5088103;28;20019;-76
2022/12/22 07:00:15;;;;;;;68.82;36.20;;;;;;;0.59;55.39;95132.91;5107172;28;20475;-77
2022/12/22 07:02:40;;;;;;;68.57;39.90;;;;;;;0.63;55.38;95135.63;5106860;28;20501;-75
2022/12/22 07:05:06;;;;;;;67.95;38.25;;;;;;;0.64;55.66;95138.00;5112979;27;20384;-78
2022/12/22 07:07:31;;;;;;;81.90;39.28;;;;;;;0.71;55.15;95135.38;5094833;28;20464;-77
2022/12/22 07:09:57;;;;;;;72.43;40.92;;;;;;;0.83;55.24;95136.28;5112451;27;20034;-76
2022/12/22 07:12:23;;;;;;;80.68;43.60;;;;;;;0.91;55.10;95132.47;5112465;28;20023;-77
2022/12/22 07:14:48;;;;;;;81.68;45.42;;;;;;;1.02;54.71;95125.25;5077190;28;20023;-77
2022/12/22 07:17:14;;;;;;;79.47;45.63;;;;;;;1.09;54.62;95125.34;5113373;27;20477;-77
2022/12/22 07:19:39;;;;;;;100.22;52.85;;;;;;;1.17;54.39;95123.50;5094491;28;20520;-75
2022/12/22 07:22:04;;;;;;;110.20;57.50;;;;;;;1.23;54.38;95130.91;5112043;28;20416;-77
2022/12/22 07:24:30;;;;;;;137.25;66.47;;;;;;;1.30;54.42;95128.25;5112624;28;20015;-78
2022/12/22 07:26:55;;;;;;;133.00;71.55;;;;;;;1.41;54.22;95125.66;5077292;28;20020;-75
2022/12/22 07:29:21;;;;;;;148.13;75.45;;;;;;;1.52;54.24;95133.88;5113392;27;20019;-77
2022/12/22 07:31:46;;;;;;;134.32;73.97;;;;;;;1.53;54.06;95119.94;5094610;28;20920;-76
2022/12/22 07:34:12;;;;;;;140.70;74.05;;;;;;;1.64;53.70;95125.47;5112252;28;20463;-75
2022/12/22 07:36:37;;;;;;;142.68;72.15;;;;;;;1.79;53.03;95118.25;5114079;28;20028;-75
2022/12/22 07:39:03;;;;;;;137.85;72.57;;;;;;;2.03;52.80;95130.41;5097046;27;20024;-75
2022/12/22 07:44:13;;;;;;;112.28;63.78;;;;;;;2.45;51.72;95126.41;5031877;28;20067;-75
2022/12/22 07:46:38;;;;;;;122.22;63.85;;;;;;;2.66;51.12;95124.56;5018415;28;20049;-75
2022/12/22 07:51:48;;;;;;;112.55;62.10;;;;;;;3.31;49.74;95127.50;5000293;28;118315;-77
2022/12/22 07:54:14;;;;;;;106.10;60.38;;;;;;;3.62;48.89;95128.72;5050532;28;20029;-76
2022/12/22 07:56:40;;;;;;;117.18;62.38;;;;;;;3.95;48.16;95124.81;5030659;28;20116;-76
2022/12/22 07:59:05;;;;;;;111.28;60.05;;;;;;;4.36;47.11;95122.47;5024411;28;20025;-75
2022/12/22 08:01:31;;;;;;;110.70;57.60;;;;;;;5.33;45.32;95128.31;5029712;28;20048;-76
2022/12/22 08:03:57;;;;;;;101.28;59.90;;;;;;;7.37;41.17;95129.94;5050565;28;20044;-76
2022/12/22 08:06:22;;;;;;;116.93;61.13;;;;;;;9.38;37.06;95125.34;5049867;28;20048;-76
2022/12/22 08:08:48;;;;;;;108.70;61.88;;;;;;;11.00;34.07;95123.81;5030447;28;20899;-76
2022/12/22 08:11:13;;;;;;;102.97;60.33;;;;;;;12.41;31.71;95125.50;5016489;28;20033;-77
2022/12/22 08:13:39;;;;;;;94.78;59.15;;;;;;;13.73;29.69;95127.16;5031608;28;20040;-75
2022/12/22 08:16:06;;;;;;;94.03;60.58;;;;;;;14.98;27.58;95136.00;5025550;28;20029;-77
2022/12/22 08:18:31;;;;;;;89.80;56.67;;;;;;;16.17;25.63;95116.41;5043653;28;20538;-76
2022/12/22 08:20:57;;;;;;;100.78;60.90;;;;;;;17.16;24.96;95123.81;5024957;28;20064;-77
2022/12/22 08:23:23;;;;;;;95.75;60.10;;;;;;;18.19;23.36;95125.88;5030672;28;20025;-76
2022/12/22 08:25:58;;;;;;;96.03;61.85;;;;;;;18.89;22.44;95121.59;5029276;28;20033;-77
2022/12/22 08:28:24;;;;;;;87.13;60.95;;;;;;;19.94;21.66;95132.38;5040523;28;20045;-75
2022/12/22 08:30:49;;;;;;;96.65;63.45;;;;;;;20.76;20.38;95129.16;5038127;28;20021;-75
2022/12/22 08:33:15;;;;;;;91.90;58.35;;;;;;;21.64;19.88;95142.03;5028104;28;20029;-76
2022/12/22 08:35:40;;;;;;;80.63;57.35;;;;;;;22.42;18.22;95134.97;5028297;28;20837;-77
2022/12/22 08:38:06;;;;;;;71.20;54.08;;;;;;;23.11;17.85;95129.53;5034828;28;20493;-74
2022/12/22 08:40:31;;;;;;;71.15;52.53;;;;;;;23.70;17.08;95116.28;5044569;28;20037;-76
2022/12/22 08:43:02;;;;;;;74.53;53.08;;;;;;;24.48;16.61;95124.13;5010545;28;20022;-82
2022/12/22 08:45:27;;;;;;;67.82;50.55;;;;;;;25.11;16.08;95128.63;5026373;28;20083;-78
2022/12/22 08:47:53;;;;;;;77.07;51.63;;;;;;;25.74;15.59;95120.94;5028126;28;20021;-76
2022/12/22 08:50:18;;;;;;;71.50;51.58;;;;;;;26.31;14.98;95121.63;5026866;28;20029;-76
2022/12/22 08:52:44;;;;;;;70.15;51.58;;;;;;;26.85;14.61;95123.31;5010206;28;20033;-75
2022/12/22 08:55:09;;;;;;;62.60;48.30;;;;;;;27.35;14.29;95121.56;5034766;28;20079;-75
2022/12/22 08:57:35;;;;;;;65.88;50.22;;;;;;;27.84;13.92;95109.03;5037498;28;20025;-76
2022/12/22 09:00:00;;;;;;;62.40;48.22;;;;;;;28.45;13.28;95107.63;5040602;28;20036;-76
2022/12/22 09:02:26;;;;;;;60.80;46.22;;;;;;;29.07;13.02;95112.44;5028152;28;20029;-77
2022/12/22 09:04:51;;;;;;;63.95;46.63;;;;;;;29.48;12.49;95105.13;5044237;28;20020;-76
2022/12/22 09:07:17;;;;;;;57.95;43.80;;;;;;;29.94;12.05;95105.34;5042437;28;20045;-76
2022/12/22 09:09:43;;;;;;;53.40;43.45;;;;;;;30.26;11.41;95098.44;5036150;28;20029;-77
2022/12/22 09:12:09;;;;;;;60.63;45.03;;;;;;;30.78;11.61;95088.44;5040440;28;20027;-77
2022/12/22 09:14:34;;;;;;;54.28;44.45;;;;;;;31.02;11.33;95092.00;5044817;28;20028;-77
2022/12/22 09:16:59;;;;;;;52.83;44.35;;;;;;;31.47;11.23;95091.19;5035564;28;20038;-77
2022/12/22 09:19:25;;;;;;;57.50;45.17;;;;;;;31.89;11.11;95088.59;5028012;28;20025;-76
2022/12/22 09:21:50;;;;;;;56.00;45.60;;;;;;;32.24;10.78;95083.06;5030484;28;20025;-76
2022/12/22 09:24:16;;;;;;;59.50;47.97;;;;;;;32.61;10.55;95081.31;5047349;28;20448;-76
2022/12/22 09:26:41;;;;;;;61.00;48.33;;;;;;;32.92;10.00;95087.53;5043978;28;20024;-76
2022/12/22 09:29:07;;;;;;;58.72;49.08;;;;;;;33.30;10.07;95080.69;5013750;28;20068;-76
2022/12/22 09:31:32;;;;;;;61.33;47.63;;;;;;;33.55;9.76;95089.94;5028420;28;20029;-77
2022/12/22 09:33:58;;;;;;;62.63;50.08;;;;;;;33.78;9.54;95086.06;5030456;28;20041;-77
2022/12/22 09:36:26;;;;;;;63.97;49.35;;;;;;;34.04;9.11;95084.59;5027343;28;20021;-77
2022/12/22 09:38:52;;;;;;;57.85;48.03;;;;;;;34.36;9.36;95086.44;5020626;28;20037;-76
2022/12/22 09:41:34;;;;;;;57.58;45.10;;;;;;;34.61;9.14;95083.41;5028797;28;20025;-77
2022/12/22 09:44:03;;;;;;;;;;;;;;;34.59;8.52;95074.69;5046419;28;20037;-75
2022/12/22 09:46:33;;;;;;;58.17;45.80;;;;;;;34.54;8.88;95084.28;5045550;28;19916;-75
2022/12/22 09:48:58;;;;;;;57.75;45.38;;;;;;;34.72;8.94;95079.97;5037329;28;20029;-76
2022/12/22 09:51:24;;;;;;;52.80;43.65;;;;;;;34.85;8.93;95062.41;5009673;28;20028;-76
2022/12/22 09:53:51;;;;;;;44.08;36.95;;;;;;;34.62;8.35;95044.94;5035998;28;20098;-76
2022/12/22 09:56:17;;;;;;;47.25;39.65;;;;;;;34.71;8.52;95058.50;5028315;28;20025;-76
2022/12/22 09:58:42;;;;;;;51.05;42.35;;;;;;;34.97;8.49;95050.44;5027699;28;20029;-76
2022/12/22 10:01:46;;;;;;;49.65;41.15;;;;;;;35.17;8.32;95049.16;5027371;28;20029;-75
2022/12/22 10:04:24;;;;;;;50.63;41.83;;;;;;;35.63;8.05;95051.13;5041816;28;20048;-75
2022/12/22 10:06:55;;;;;;;58.30;46.03;;;;;;;35.88;7.98;95042.19;5034626;28;20544;-77
2022/12/22 10:09:25;;;;;;;53.05;44.17;;;;;;;36.21;7.92;95033.88;5037301;28;20450;-77
2022/12/22 10:11:56;;;;;;;52.35;45.58;;;;;;;36.54;7.45;95027.59;5027683;28;20066;-77
2022/12/22 10:14:43;;;;;;;50.42;44.97;;;;;;;36.83;7.24;95028.19;5028948;28;20032;-76
2022/12/22 10:17:22;;;;;;;54.95;45.53;;;;;;;37.25;7.27;95020.97;5025178;28;20053;-76
2022/12/22 10:19:49;;;;;;;59.30;47.38;;;;;;;37.45;7.26;95015.84;5027054;28;20087;-76
2022/12/22 10:22:28;;;;;;;53.63;47.00;;;;;;;37.59;7.21;95001.72;5025398;28;20040;-76
2022/12/22 10:24:53;;;;;;;52.28;46.55;;;;;;;37.63;6.69;95007.72;5039600;28;20033;-76
2022/12/22 10:27:20;;;;;;;51.45;44.72;;;;;;;37.53;6.97;95007.81;5040383;28;20515;-77
2022/12/22 10:29:46;;;;;;;53.65;46.33;;;;;;;37.71;7.03;95005.38;5008025;28;20416;-77
2022/12/22 10:32:13;;;;;;;53.60;45.22;;;;;;;37.78;6.84;95001.53;5026869;28;20025;-77
2022/12/22 10:34:57;;;;;;;49.30;43.72;;;;;;;37.91;6.80;95000.19;5009723;28;20033;-77
2022/12/22 10:37:37;;;;;;;53.75;45.42;;;;;;;37.84;6.79;94998.31;5026326;28;20029;-75
2022/12/22 10:40:20;;;;;;;51.90;44.50;;;;;;;38.05;6.72;94989.63;5026657;28;20048;-76
2022/12/22 10:42:51;;;;;;;49.67;44.22;;;;;;;38.21;6.71;94979.19;5035530;28;20028;-76
2022/12/22 10:45:24;;;;;;;50.90;43.80;;;;;;;38.32;6.44;94985.59;5039379;28;20048;-76
2022/12/22 10:47:52;;;;;;;55.70;45.15;;;;;;;38.55;6.69;94976.97;5040774;28;20020;-77
2022/12/22 10:50:17;;;;;;;48.92;43.35;;;;;;;38.70;6.20;94981.44;5027669;28;20024;-77
2022/12/22 10:52:52;;;;;;;52.92;43.65;;;;;;;38.87;6.29;94974.56;5045018;28;20110;-77
2022/12/22 10:55:24;;;;;;;48.40;41.40;;;;;;;39.11;6.27;94978.88;5026649;28;20056;-74
2022/12/22 10:57:49;;;;;;;;;;;;;;;39.29;6.20;94971.34;5045000;28;20033;-76
2022/12/22 11:00:22;;;;;;;48.00;41.00;;;;;;;39.52;5.92;94967.63;5061259;28;20553;-76
2022/12/22 11:02:50;;;;;;;50.05;43.70;;;;;;;39.93;5.91;94957.69;5038370;28;20037;-76
2022/12/22 11:05:16;;;;;;;52.33;44.30;;;;;;;40.12;5.57;94957.31;5016511;28;20111;-77
2022/12/22 11:07:43;;;;;;;48.78;43.53;;;;;;;40.17;5.75;94946.78;5033864;28;20029;-74
2022/12/22 11:10:38;;;;;;;50.20;42.72;;;;;;;40.37;5.55;94950.72;5023392;28;20029;-76
2022/12/22 11:13:15;;;;;;;51.20;42.85;;;;;;;40.39;5.61;94950.09;5035822;28;20033;-74
2022/12/22 11:15:44;;;;;;;52.13;41.35;;;;;;;40.72;5.41;94950.44;5025713;28;20067;-80
2022/12/22 11:18:31;;;;;;;53.25;41.85;;;;;;;40.71;5.38;94937.41;5031661;28;20032;-75
2022/12/22 11:21:27;;;;;;;52.58;42.38;;;;;;;40.52;5.54;94940.75;5028021;28;20025;-77
2022/12/22 11:24:08;;;;;;;52.35;43.60;;;;;;;40.57;5.40;94936.69;5022623;28;20037;-80
2022/12/22 11:26:42;;;;;;;50.55;43.75;;;;;;;40.51;5.49;94937.13;5045750;28;20041;-75
2022/12/22 11:29:26;;;;;;;50.00;44.00;;;;;;;40.30;5.50;94937.38;5043780;28;20071;-76
2022/12/22 11:32:22;;;;;;;50.22;43.53;;;;;;;40.19;5.65;94938.22;5044192;28;20056;-77
2022/12/22 11:35:04;;;;;;;50.20;43.08;;;;;;;39.93;5.49;94935.41;5024491;28;20067;-75
2022/12/22 11:37:36;;;;;;;50.25;43.72;;;;;;;39.70;5.75;94926.94;5042867;28;20029;-75
2022/12/22 11:40:13;;;;;;;51.00;43.78;;;;;;;39.70;6.05;94926.94;5045277;28;20465;-76
2022/12/22 11:43:00;;;;;;;55.00;44.33;;;;;;;39.73;5.55;94917.75;5045029;28;20025;-76
2022/12/22 11:45:54;;;;;;;52.10;44.40;;;;;;;39.72;5.51;94921.28;5037620;28;20116;-76
2022/12/22 11:48:38;;;;;;;51.45;44.47;;;;;;;39.30;5.82;94912.47;5044612;28;20032;-79
2022/12/22 11:51:13;;;;;;;49.75;44.38;;;;;;;38.99;5.85;94923.56;5034223;28;20394;-76
2022/12/22 11:54:03;;;;;;;55.45;43.92;;;;;;;38.70;5.89;94918.25;5048217;28;20025;-76
2022/12/22 11:56:37;;;;;;;59.45;48.15;;;;;;;38.37;6.44;94916.31;5033622;28;20037;-76
2022/12/22 11:59:14;;;;;;;54.22;46.72;;;;;;;37.83;6.53;94905.78;5011328;28;20024;-77
2022/12/22 12:02:17;;;;;;;54.72;45.78;;;;;;;37.76;6.79;94914.63;5029397;28;20053;-77
2022/12/22 12:05:01;;;;;;;;;;;;;;;37.11;6.77;94908.31;5032554;28;20187;-77
2022/12/22 12:07:27;;;;;;;60.53;47.10;;;;;;;36.20;6.94;94894.28;5031679;28;19924;-76
2022/12/22 12:10:05;;;;;;;56.53;46.75;;;;;;;35.70;7.40;94895.81;5039731;28;20037;-77
2022/12/22 12:12:52;;;;;;;56.55;47.70;;;;;;;34.84;8.23;94892.47;5045779;28;20532;-76
2022/12/22 12:15:30;;;;;;;65.85;49.25;;;;;;;33.12;8.86;94888.38;5039652;28;20475;-76
2022/12/22 12:18:22;;;;;;;63.60;50.17;;;;;;;31.61;9.92;94876.56;5028968;28;20044;-76
2022/12/22 12:21:03;;;;;;;70.25;53.33;;;;;;;30.43;10.70;94874.59;5034602;28;20040;-76
2022/12/22 12:23:47;;;;;;;73.63;54.28;;;;;;;29.25;11.44;94886.31;5022803;28;20417;-75
2022/12/22 12:26:21;;;;;;;67.60;54.63;;;;;;;27.97;12.31;94874.50;5030318;28;20034;-75
2022/12/22 12:29:08;;;;;;;81.35;57.15;;;;;;;26.84;13.18;94872.84;5029270;28;20568;-77
2022/12/22 12:31:37;;;;;;;75.10;56.67;;;;;;;25.72;14.06;94866.59;5029142;28;20423;-77
2022/12/22 12:34:03;;;;;;;71.63;56.00;;;;;;;24.92;14.60;94857.13;5038761;28;20503;-76
2022/12/22 12:36:30;;;;;;;72.68;57.00;;;;;;;24.38;15.34;94856.06;5033168;28;20052;-76
2022/12/22 12:39:18;;;;;;;87.35;60.38;;;;;;;23.83;15.82;94866.63;5049638;28;20021;-74
2022/12/22 12:42:02;;;;;;;80.43;61.22;;;;;;;23.18;16.43;94862.63;5047085;28;20053;-76
2022/12/22 12:44:33;;;;;;;81.90;58.80;;;;;;;22.66;17.20;94865.50;5047215;28;20099;-76
2022/12/22 12:47:24;;;;;;;91.82;65.68;;;;;;;22.17;17.94;94854.78;5030553;28;20044;-77
2022/12/22 12:49:59;;;;;;;89.13;65.63;;;;;;;21.59;18.82;94853.91;5046785;28;20025;-75
2022/12/22 12:52:37;;;;;;;98.07;66.60;;;;;;;21.07;19.11;94848.84;5027112;28;20022;-75
2022/12/22 12:55:32;;;;;;;98.38;65.50;;;;;;;20.62;19.35;94848.81;5026170;28;20120;-76
2022/12/22 12:57:59;;;;;;;88.65;63.65;;;;;;;20.25;19.60;94852.50;5025540;28;20488;-75
2022/12/22 13:00:45;;;;;;;91.22;64.53;;;;;;;19.75;20.50;94849.50;5012958;28;20071;-76
2022/12/22 13:03:33;;;;;;;105.63;69.55;;;;;;;19.32;21.18;94843.88;5044550;28;20090;-77
2022/12/22 13:06:00;;;;;;;104.80;68.05;;;;;;;18.97;21.88;94839.31;5048305;28;20405;-75
2022/12/22 13:08:32;;;;;;;98.65;69.50;;;;;;;18.64;22.23;94842.56;5016677;28;20053;-74
2022/12/22 13:10:58;;;;;;;105.50;71.07;;;;;;;18.31;22.71;94851.34;5022390;28;20068;-75
2022/12/22 13:13:23;;;;;;;100.25;69.72;;;;;;;17.99;23.13;94844.91;5031538;28;20056;-77
2022/12/22 13:16:11;;;;;;;92.50;67.28;;;;;;;17.61;23.81;94845.94;5028702;28;20108;-76
2022/12/22 13:18:45;;;;;;;96.95;65.93;;;;;;;17.10;24.07;94836.88;5044476;28;20040;-76
2022/12/22 13:21:41;;;;;;;98.53;67.18;;;;;;;16.77;24.74;94831.53;5025881;28;20041;-78
2022/12/22 13:24:09;;;;;;;97.05;64.35;;;;;;;16.50;25.15;94834.56;5046406;28;20052;-76
2022/12/22 13:26:36;;;;;;;100.38;65.90;;;;;;;16.24;25.92;94835.16;5036141;28;20033;-76
2022/12/22 13:29:32;;;;;;;101.75;65.22;;;;;;;15.90;26.06;94834.50;5032014;28;20112;-76
2022/12/22 13:32:00;;;;;;;93.03;62.97;;;;;;;15.63;26.52;94832.69;4998907;28;20042;-77
2022/12/22 13:34:29;;;;;;;106.57;64.53;;;;;;;15.44;26.94;94834.03;5017115;28;20064;-78
2022/12/22 13:36:54;;;;;;;101.43;64.20;;;;;;;15.16;27.24;94827.13;5026518;28;20072;-76
2022/12/22 13:39:20;;;;;;;105.57;63.97;;;;;;;14.96;27.69;94835.94;5042772;28;20404;-76
2022/12/22 13:41:47;;;;;;;98.20;64.00;;;;;;;14.76;27.79;94830.97;5027452;28;20025;-76
2022/12/22 13:44:18;;;;;;;94.65;61.97;;;;;;;14.62;28.33;94826.84;5042393;28;20021;-76
2022/12/22 13:46:43;;;;;;;101.82;63.55;;;;;;;14.39;28.80;94825.50;5042084;28;20186;-76
2022/12/22 13:49:12;;;;;;;107.50;66.18;;;;;;;14.22;28.95;94824.28;5025842;28;20496;-76
2022/12/22 13:51:37;;;;;;;107.47;64.55;;;;;;;14.06;29.48;94822.66;5025571;28;20060;-76
2022/12/22 13:54:13;;;;;;;103.25;64.88;;;;;;;13.88;29.69;94823.44;5025925;28;20033;-75
2022/12/22 13:56:45;;;;;;;105.80;64.20;;;;;;;13.73;29.94;94826.03;5027112;28;20108;-76
2022/12/22 13:59:39;;;;;;;110.90;62.38;;;;;;;13.53;30.50;94818.19;5042137;28;20052;-74
2022/12/22 14:02:07;;;;;;;96.70;61.13;;;;;;;13.38;31.11;94816.50;5040853;28;20026;-76
2022/12/22 14:04:33;;;;;;;103.40;61.22;;;;;;;13.25;31.57;94825.66;5026425;28;20120;-75
2022/12/22 14:07:18;;;;;;;97.22;60.85;;;;;;;13.06;31.29;94815.75;5027253;28;20575;-76
2022/12/22 14:09:47;;;;;;;98.15;60.83;;;;;;;12.92;31.71;94814.34;5042306;28;20097;-77
2022/12/22 14:12:26;;;;;;;100.32;61.30;;;;;;;12.80;32.02;94812.47;5040377;28;20041;-77
2022/12/22 14:14:53;;;;;;;103.65;64.53;;;;;;;12.61;32.24;94811.59;5041573;28;20107;-76
2022/12/22 14:17:32;;;;;;;107.55;63.50;;;;;;;12.46;32.40;94810.63;5024610;28;20025;-76
2022/12/22 14:19:59;;;;;;;105.07;62.28;;;;;;;12.28;32.66;94805.81;5009380;28;20033;-77
2022/12/22 14:22:34;;;;;;;103.22;60.67;;;;;;;12.21;33.04;94811.56;5041547;28;20052;-74
2022/12/22 14:25:17;;;;;;;109.65;66.43;;;;;;;12.04;33.34;94808.22;5008795;28;20021;-76
2022/12/22 14:27:53;;;;;;;117.30;66.85;;;;;;;11.88;33.75;94809.22;5039734;28;20029;-77
2022/12/22 14:30:20;;;;;;;116.28;66.50;;;;;;;11.72;33.75;94809.38;5041847;28;20033;-74
2022/12/22 14:32:56;;;;;;;110.50;67.15;;;;;;;11.60;34.07;94810.97;5060894;28;20168;-76
2022/12/22 14:35:22;;;;;;;116.90;71.55;;;;;;;11.44;34.57;94806.38;5019716;28;20035;-75
2022/12/22 14:38:06;;;;;;;121.55;69.28;;;;;;;11.23;34.87;94812.59;5036489;28;20025;-77
2022/12/22 14:40:31;;;;;;;;;;;;;;;11.09;35.16;94816.59;5027267;28;20109;-74
2022/12/22 14:42:57;;;;;;;106.95;62.13;;;;;;;10.88;35.51;94811.78;5027771;28;20332;-76
2022/12/22 14:45:22;;;;;;;104.20;62.17;;;;;;;10.71;35.74;94815.88;5009887;28;20033;-76
2022/12/22 14:47:48;;;;;;;101.97;62.50;;;;;;;10.59;36.25;94811.91;5035579;28;20075;-76
2022/12/22 14:50:18;;;;;;;106.75;59.80;;;;;;;10.41;36.50;94801.47;5040882;28;20099;-75
2022/12/22 14:52:49;;;;;;;108.32;61.67;;;;;;;10.36;36.71;94818.50;5015746;28;20037;-75
2022/12/22 14:55:32;;;;;;;105.18;60.20;;;;;;;10.23;37.36;94810.22;5041218;28;20032;-75
2022/12/22 14:58:19;;;;;;;104.03;57.85;;;;;;;10.09;37.66;94819.66;5040055;28;20115;-76
2022/12/22 15:00:48;;;;;;;103.07;57.10;;;;;;;9.98;37.80;94826.66;5025932;28;20033;-76
2022/12/22 15:03:32;;;;;;;97.82;59.20;;;;;;;9.89;38.25;94823.75;5024481;28;20036;-76
2022/12/22 15:06:20;;;;;;;104.18;59.25;;;;;;;9.74;38.44;94831.59;5025023;28;20045;-76
2022/12/22 15:08:46;;;;;;;104.20;58.92;;;;;;;9.66;39.22;94830.25;5033739;28;20038;-75
2022/12/22 15:11:13;;;;;;;108.20;59.53;;;;;;;9.57;39.39;94828.91;5025913;28;20049;-76
2022/12/22 15:13:39;;;;;;;115.40;62.60;;;;;;;9.45;40.05;94826.09;5015392;28;20029;-75